Time;durP1;ratioP1;P1;durP2;ratioP2;P2;SDS_P1;SDS_P2;PMS_P1;PMS_P2;Temp;Humidity;BMP_temperature;BMP_pressure;BME280_temperature;BME280_humidity;BME280_pressure;Samples;Min_cycle;Max_cycle;Signal;HPM_P1;HPM_P2
2021/04/15 00:00:48;;;;;;;8.93;5.60;;;2.60;99.70;;;;;;6157497;23;20432;-80
2021/04/15 00:03:19;;;;;;;5.77;4.40;;;2.60;99.50;;;;;;6157285;23;20430;-79
2021/04/15 00:05:49;;;;;;;7.23;4.53;;;2.50;99.50;;;;;;6157538;23;20745;-80
2021/04/15 00:08:19;;;;;;;6.13;4.50;;;2.50;99.50;;;;;;6156769;23;20412;-80
2021/04/15 00:10:48;;;;;;;8.10;4.40;;;2.50;99.50;;;;;;6168900;23;20427;-79
2021/04/15 00:13:20;;;;;;;9.33;4.40;;;2.50;99.50;;;;;;6168509;23;20411;-80
2021/04/15 00:15:48;;;;;;;6.10;4.30;;;2.40;99.50;;;;;;6181854;23;20428;-80
2021/04/15 00:18:16;;;;;;;9.20;5.33;;;2.40;99.50;;;;;;6156938;23;20414;-80
2021/04/15 00:20:43;;;;;;;10.60;5.43;;;2.40;99.60;;;;;;6168853;23;20423;-80
2021/04/15 00:23:11;;;;;;;10.33;6.00;;;2.30;99.50;;;;;;6168831;23;20551;-80
2021/04/15 00:25:41;;;;;;;7.40;5.40;;;2.30;99.60;;;;;;6182209;23;20415;-80
2021/04/15 00:28:09;;;;;;;6.00;4.90;;;2.30;99.60;;;;;;6157006;23;20444;-78
2021/04/15 00:30:37;;;;;;;6.53;4.53;;;2.30;99.60;;;;;;6156812;23;20817;-80
2021/04/15 00:33:07;;;;;;;4.90;4.23;;;2.20;99.60;;;;;;6169636;23;20406;-80
2021/04/15 00:35:35;;;;;;;7.50;4.63;;;2.20;99.60;;;;;;6182219;23;20416;-80
2021/04/15 00:38:03;;;;;;;5.77;5.17;;;2.20;99.60;;;;;;6157532;23;20419;-80
2021/04/15 00:40:32;;;;;;;5.20;4.63;;;2.10;99.70;;;;;;6170018;23;20416;-80
2021/04/15 00:43:00;;;;;;;6.93;4.10;;;2.10;99.70;;;;;;6158768;23;20491;-80
2021/04/15 00:45:30;;;;;;;8.90;4.90;;;2.10;99.70;;;;;;6170540;23;20443;-79
2021/04/15 00:48:03;;;;;;;5.70;4.77;;;2.10;99.70;;;;;;6159331;23;20412;-80
2021/04/15 00:50:34;;;;;;;6.27;4.73;;;2.00;99.70;;;;;;6159269;23;20981;-80
2021/04/15 00:53:06;;;;;;;7.93;5.07;;;2.00;99.70;;;;;;6159211;23;20420;-80
2021/04/15 00:55:35;;;;;;;5.83;4.80;;;2.00;99.80;;;;;;6170484;23;20385;-80
2021/04/15 00:58:04;;;;;;;6.27;5.17;;;2.00;99.80;;;;;;6158888;23;20427;-79
2021/04/15 01:00:32;;;;;;;6.33;5.00;;;1.90;99.80;;;;;;6170572;23;20412;-80
2021/04/15 01:03:02;;;;;;;5.70;4.67;;;1.90;99.80;;;;;;6159147;23;20442;-80
2021/04/15 01:05:33;;;;;;;5.67;4.50;;;1.90;99.80;;;;;;6158965;23;20416;-80
2021/04/15 01:08:00;;;;;;;8.13;4.87;;;1.80;99.80;;;;;;6158810;23;20501;-80
2021/04/15 01:10:30;;;;;;;8.90;5.10;;;1.90;99.80;;;;;;6159097;23;20981;-80
2021/04/15 01:13:17;;;;;;;6.53;4.83;;;1.80;99.80;;;;;;6160309;23;20419;-80
2021/04/15 01:15:53;;;;;;;5.27;4.67;;;1.80;99.90;;;;;;6183773;23;20950;-80
2021/04/15 01:18:28;;;;;;;6.73;4.93;;;1.80;99.90;;;;;;6171240;23;20389;-79
2021/04/15 01:21:21;;;;;;;6.73;5.10;;;1.70;99.90;;;;;;6159632;23;20413;-80
2021/04/15 01:23:57;;;;;;;6.67;4.87;;;1.70;99.90;;;;;;6184279;23;20436;-80
2021/04/15 01:26:53;;;;;;;7.47;4.60;;;1.70;99.90;;;;;;6171374;23;20390;-80
2021/04/15 01:29:33;;;;;;;6.30;4.93;;;1.70;99.90;;;;;;6159782;23;20432;-81
2021/04/15 01:32:10;;;;;;;6.30;5.60;;;1.60;99.90;;;;;;6185399;23;20742;-80
2021/04/15 01:34:43;;;;;;;6.57;5.70;;;1.60;99.90;;;;;;6161558;23;20738;-80
2021/04/15 01:37:21;;;;;;;8.53;5.00;;;1.60;99.90;;;;;;6160666;23;20415;-80
2021/04/15 01:39:53;;;;;;;6.50;5.13;;;1.50;99.90;;;;;;6159042;23;20451;-80
2021/04/15 01:42:25;;;;;;;8.93;6.47;;;1.50;99.90;;;;;;6170581;23;20401;-80
2021/04/15 01:44:57;;;;;;;6.63;5.40;;;1.50;99.90;;;;;;6171650;23;20420;-81
2021/04/15 01:47:29;;;;;;;6.73;5.13;;;1.50;99.90;;;;;;6173670;23;20386;-80
2021/04/15 01:50:05;;;;;;;6.50;5.57;;;1.40;99.90;;;;;;6158436;23;20441;-80
2021/04/15 01:52:36;;;;;;;5.73;4.90;;;1.40;99.90;;;;;;6183995;23;20411;-80
2021/04/15 01:55:12;;;;;;;6.10;4.63;;;1.40;99.90;;;;;;6158556;23;20836;-80
2021/04/15 01:57:46;;;;;;;7.43;5.13;;;1.40;99.90;;;;;;6171124;23;20382;-79
2021/04/15 02:00:20;;;;;;;6.00;5.00;;;1.30;99.90;;;;;;6158617;23;20434;-80
2021/04/15 02:02:54;;;;;;;6.63;5.20;;;1.30;99.90;;;;;;6158888;23;20466;-80
2021/04/15 02:05:24;;;;;;;5.93;5.30;;;1.30;99.90;;;;;;6158778;23;20408;-80
2021/04/15 02:07:54;;;;;;;8.80;7.27;;;1.20;99.90;;;;;;6158779;23;20426;-80
2021/04/15 02:10:22;;;;;;;10.10;7.20;;;1.20;99.90;;;;;;6158214;23;20439;-80
2021/04/15 02:30:24;;;;;;;;;;;;;;;;;;;;;
2021/04/15 02:36:54;;;;;;;10.80;5.67;;;1.00;99.90;;;;;;6006880;23;20427;-81
2021/04/15 02:51:22;;;;;;;8.47;6.07;;;0.80;99.90;;;;;;5952326;23;20480;-81
2021/04/15 02:53:58;;;;;;;8.63;7.57;;;0.90;99.90;;;;;;6051543;23;20219;-82
2021/04/15 02:56:30;;;;;;;10.47;7.10;;;0.80;99.90;;;;;;6041587;23;20420;-81
2021/04/15 02:59:04;;;;;;;7.73;6.40;;;0.80;99.90;;;;;;6041207;23;20545;-82
2021/04/15 03:01:38;;;;;;;9.00;7.50;;;0.80;99.90;;;;;;6051043;23;20417;-81
2021/04/15 03:04:13;;;;;;;7.93;6.47;;;0.80;99.90;;;;;;6051945;23;20480;-81
2021/04/15 03:06:44;;;;;;;17.77;12.73;;;0.80;99.90;;;;;;6017736;23;21014;-81
2021/04/15 03:09:13;;;;;;;10.07;9.00;;;0.80;99.90;;;;;;6041135;23;20462;-81
2021/04/15 03:16:03;;;;;;;8.03;7.03;;;0.80;99.90;;;;;;5993117;23;20454;-81
2021/04/15 03:18:42;;;;;;;6.90;6.20;;;0.70;99.90;;;;;;6042137;23;20427;-81
2021/04/15 03:21:17;;;;;;;8.23;7.10;;;0.70;99.90;;;;;;6042911;23;20434;-81
2021/04/15 03:23:51;;;;;;;10.87;6.40;;;0.70;99.90;;;;;;6101423;23;20497;-81
2021/04/15 03:26:35;;;;;;;8.80;7.40;;;0.70;99.90;;;;;;6075852;23;20422;-81
2021/04/15 03:29:15;;;;;;;7.90;6.63;;;0.60;99.90;;;;;;6081569;23;20433;-80
2021/04/15 03:31:54;;;;;;;12.70;8.90;;;0.60;99.90;;;;;;6075045;23;20447;-82
2021/04/15 03:34:30;;;;;;;12.57;8.00;;;0.60;99.90;;;;;;6075291;23;20516;-81
2021/04/15 03:37:00;;;;;;;10.70;7.77;;;0.60;99.90;;;;;;6075967;23;20416;-81
2021/04/15 03:39:32;;;;;;;9.90;6.37;;;0.60;99.90;;;;;;6098967;23;20453;-81
2021/04/15 03:42:11;;;;;;;8.60;7.10;;;0.60;99.90;;;;;;6074871;23;20412;-81
2021/04/15 03:44:42;;;;;;;11.03;7.70;;;0.60;99.90;;;;;;6074968;23;20449;-82
2021/04/15 03:47:14;;;;;;;8.60;6.80;;;0.60;99.90;;;;;;6075006;23;20459;-82
2021/04/15 03:49:50;;;;;;;12.67;7.50;;;0.50;99.90;;;;;;6074647;23;20438;-81
2021/04/15 03:52:22;;;;;;;8.50;7.50;;;0.50;99.90;;;;;;6075318;23;20456;-82
2021/04/15 03:54:54;;;;;;;8.47;6.87;;;0.50;99.90;;;;;;6075740;23;20417;-81
2021/04/15 03:57:43;;;;;;;;;;;;;;;;;;;;;
2021/04/15 04:01:20;;;;;;;8.67;7.87;;;0.50;99.90;;;;;;6128203;23;20505;-82
2021/04/15 04:04:00;;;;;;;8.93;7.40;;;0.50;99.90;;;;;;6138236;23;20493;-81
2021/04/15 04:06:32;;;;;;;9.10;6.40;;;0.40;99.90;;;;;;6103708;23;21005;-82
2021/04/15 04:09:04;;;;;;;9.90;8.07;;;0.40;99.90;;;;;;6103669;23;20490;-81
2021/04/15 04:11:35;;;;;;;8.13;6.30;;;0.40;99.90;;;;;;6104109;23;20416;-81
2021/04/15 04:14:12;;;;;;;9.83;7.87;;;0.40;99.90;;;;;;6105088;23;20935;-80
2021/04/15 04:16:43;;;;;;;12.03;7.90;;;0.40;99.90;;;;;;6105466;23;20434;-80
2021/04/15 04:19:19;;;;;;;12.50;8.60;;;0.40;99.90;;;;;;6105371;23;20810;-80
2021/04/15 04:21:50;;;;;;;8.97;7.53;;;0.30;99.90;;;;;;6129758;23;20441;-81
2021/04/15 04:24:25;;;;;;;10.97;8.70;;;0.30;99.90;;;;;;6105044;23;20445;-81
2021/04/15 04:26:59;;;;;;;9.57;8.30;;;0.30;99.90;;;;;;6104495;23;20412;-80
2021/04/15 04:29:36;;;;;;;11.97;9.63;;;0.30;99.90;;;;;;6149165;23;20442;-80
2021/04/15 04:32:10;;;;;;;10.70;7.40;;;0.30;99.90;;;;;;6215063;23;20411;-80
2021/04/15 04:34:39;;;;;;;8.47;7.23;;;0.30;99.90;;;;;;6190904;23;20799;-80
2021/04/15 04:37:10;;;;;;;11.93;8.03;;;0.30;99.90;;;;;;6189979;23;20415;-80
2021/04/15 04:39:41;;;;;;;10.33;8.63;;;0.20;99.90;;;;;;6214859;23;20776;-81
2021/04/15 04:42:19;;;;;;;9.30;8.40;;;0.20;99.90;;;;;;6190384;23;20417;-81
2021/04/15 04:44:50;;;;;;;10.20;7.47;;;0.20;99.90;;;;;;6201515;23;20513;-81
2021/04/15 04:47:27;;;;;;;9.53;8.60;;;0.20;99.90;;;;;;6189874;23;20802;-81
2021/04/15 04:50:00;;;;;;;9.60;8.40;;;0.10;99.90;;;;;;6189656;23;20439;-80
2021/04/15 04:52:30;;;;;;;10.67;8.80;;;0.10;99.90;;;;;;6214457;23;20412;-81
2021/04/15 04:54:59;;;;;;;11.13;8.90;;;0.10;99.90;;;;;;6214533;23;20730;-81
2021/04/15 04:57:34;;;;;;;9.90;7.43;;;0.10;99.90;;;;;;6201446;23;20385;-81
2021/04/15 05:00:05;;;;;;;9.10;8.30;;;0.10;99.90;;;;;;6189782;23;20445;-81
2021/04/15 05:02:33;;;;;;;10.50;9.40;;;0.10;99.90;;;;;;6189354;23;20419;-81
2021/04/15 05:05:02;;;;;;;10.17;9.17;;;0.20;99.90;;;;;;6189394;23;20194;-81
2021/04/15 05:07:31;;;;;;;10.80;9.70;;;0.20;99.90;;;;;;6189448;23;20426;-81
2021/04/15 05:10:03;;;;;;;11.10;9.50;;;0.20;99.90;;;;;;6201069;23;20733;-81
2021/04/15 05:12:35;;;;;;;12.50;11.20;;;0.20;99.90;;;;;;6191044;23;20415;-82
2021/04/15 05:15:03;;;;;;;11.67;10.03;;;0.20;99.90;;;;;;6190629;23;20164;-82
2021/04/15 05:17:33;;;;;;;12.60;9.50;;;0.20;99.90;;;;;;6196782;23;20419;-82
2021/04/15 05:20:07;;;;;;;10.83;9.50;;;0.30;99.90;;;;;;6192061;23;20463;-82
2021/04/15 05:22:37;;;;;;;10.70;9.60;;;0.20;99.90;;;;;;6192429;23;20404;-82
2021/04/15 05:25:11;;;;;;;12.83;9.10;;;0.20;99.90;;;;;;6216102;23;20468;-82
2021/04/15 05:27:41;;;;;;;11.03;9.90;;;0.20;99.90;;;;;;6216700;23;20402;-82
2021/04/15 05:30:20;;;;;;;11.10;10.00;;;0.30;99.90;;;;;;6202997;23;20973;-82
2021/04/15 05:32:51;;;;;;;12.57;11.27;;;0.30;99.90;;;;;;6191617;23;20494;-82
2021/04/15 05:35:26;;;;;;;11.23;9.97;;;0.30;99.90;;;;;;6216128;23;20443;-83
2021/04/15 05:37:57;;;;;;;12.43;11.13;;;0.30;99.90;;;;;;6203227;23;20378;-83
2021/04/15 05:40:28;;;;;;;10.70;9.33;;;0.30;99.90;;;;;;6190638;23;20439;-83
2021/04/15 05:43:13;;;;;;;13.20;10.90;;;0.40;99.90;;;;;;6215977;23;20414;-83
2021/04/15 05:45:49;;;;;;;13.13;11.73;;;0.40;99.90;;;;;;6190584;23;20410;-82
2021/04/15 05:48:20;;;;;;;13.07;11.77;;;0.40;99.90;;;;;;6215299;23;20411;-82
2021/04/15 05:50:57;;;;;;;13.80;10.93;;;0.50;99.90;;;;;;6191431;23;20478;-82
2021/04/15 05:53:30;;;;;;;14.70;11.50;;;0.40;99.90;;;;;;6216277;23;20413;-82
2021/04/15 05:56:05;;;;;;;14.10;12.63;;;0.50;99.90;;;;;;6215558;23;20957;-82
2021/04/15 05:58:40;;;;;;;19.40;14.67;;;0.50;99.90;;;;;;6191273;23;20418;-82
2021/04/15 06:01:11;;;;;;;15.23;13.87;;;0.60;99.90;;;;;;6215851;23;20788;-83
2021/04/15 06:03:51;;;;;;;13.73;12.30;;;0.60;99.90;;;;;;6190272;23;20441;-83
2021/04/15 06:06:22;;;;;;;17.00;15.20;;;0.70;99.90;;;;;;6191064;23;20403;-82
2021/04/15 06:08:54;;;;;;;16.33;14.83;;;0.90;99.90;;;;;;6202550;23;20426;-82
2021/04/15 06:11:40;;;;;;;16.03;13.63;;;1.10;99.90;;;;;;6202526;23;20400;-82
2021/04/15 06:14:19;;;;;;;17.30;15.47;;;1.40;99.90;;;;;;6217129;23;20434;-82
2021/04/15 06:16:59;;;;;;;16.90;15.30;;;1.70;99.90;;;;;;6202197;23;20415;-83
2021/04/15 06:19:28;;;;;;;17.90;16.20;;;2.00;99.90;;;;;;6191574;23;20439;-84
2021/04/15 06:22:11;;;;;;;17.63;15.83;;;2.30;99.90;;;;;;6215693;23;20417;-83
2021/04/15 06:24:42;;;;;;;16.57;14.97;;;2.70;99.90;;;;;;6190181;23;20448;-82
2021/04/15 06:27:12;;;;;;;14.93;13.43;;;3.00;99.90;;;;;;6202851;23;20384;-82
2021/04/15 06:29:47;;;;;;;15.70;14.20;;;3.30;99.90;;;;;;6201832;23;20417;-82
2021/04/15 06:32:29;;;;;;;15.00;12.17;;;3.50;99.90;;;;;;6190690;23;20439;-82
2021/04/15 06:34:59;;;;;;;13.33;12.03;;;3.80;99.90;;;;;;6215603;23;20411;-82
2021/04/15 06:37:35;;;;;;;13.37;12.00;;;4.00;99.90;;;;;;6190318;23;20427;-82
2021/04/15 06:40:41;;;;;;;12.53;11.23;;;4.40;99.90;;;;;;6190181;23;20817;-83
2021/04/15 06:43:24;;;;;;;12.80;11.50;;;4.60;99.90;;;;;;6215620;23;20419;-83
2021/04/15 06:46:20;;;;;;;13.00;11.80;;;4.80;99.90;;;;;;6200918;23;20378;-82
2021/04/15 06:49:36;;;;;;;12.50;11.20;;;5.10;99.90;;;;;;6215552;23;20439;-82
2021/04/15 06:52:18;;;;;;;12.87;10.90;;;5.30;99.90;;;;;;6201667;23;20383;-83
2021/04/15 06:55:12;;;;;;;13.23;10.30;;;5.50;99.90;;;;;;6201460;23;20430;-83
2021/04/15 06:58:09;;;;;;;13.43;10.67;;;5.70;99.90;;;;;;6190282;23;20411;-83
2021/04/15 07:01:06;;;;;;;11.67;10.57;;;5.90;99.90;;;;;;6205638;23;20434;-83
2021/04/15 07:03:51;;;;;;;13.80;10.20;;;6.00;99.90;;;;;;6214703;23;20414;-83
2021/04/15 07:06:41;;;;;;;12.40;10.17;;;6.10;99.90;;;;;;6214680;23;20477;-82
2021/04/15 07:09:31;;;;;;;12.87;11.03;;;6.30;99.90;;;;;;6190085;23;20439;-82
2021/04/15 07:12:25;;;;;;;12.77;11.10;;;6.50;99.90;;;;;;6214942;23;20451;-82
2021/04/15 07:15:14;;;;;;;11.40;10.30;;;6.60;99.90;;;;;;6189383;23;20462;-82
2021/04/15 07:18:02;;;;;;;11.47;9.70;;;6.90;99.90;;;;;;6189909;23;20424;-82
2021/04/15 07:20:49;;;;;;;10.03;9.03;;;7.10;99.90;;;;;;6189927;23;20505;-82
2021/04/15 07:23:51;;;;;;;11.50;10.40;;;7.30;99.90;;;;;;6214911;23;20415;-82
2021/04/15 07:26:50;;;;;;;10.47;7.60;;;7.50;99.90;;;;;;6189060;23;20441;-82
2021/04/15 07:29:40;;;;;;;8.37;7.60;;;7.70;99.90;;;;;;6214812;23;20855;-82
2021/04/15 07:32:30;;;;;;;9.73;7.87;;;8.00;99.90;;;;;;6189626;23;20492;-83
2021/04/15 07:35:28;;;;;;;8.53;7.20;;;8.10;99.90;;;;;;6201400;23;20388;-82
2021/04/15 07:38:19;;;;;;;8.03;7.10;;;8.20;99.90;;;;;;6212538;23;20499;-82
2021/04/15 07:41:16;;;;;;;8.73;6.93;;;8.30;99.90;;;;;;6215317;23;20444;-82
2021/04/15 07:44:27;;;;;;;8.00;7.20;;;8.40;99.90;;;;;;6201703;23;20390;-82
2021/04/15 07:47:16;;;;;;;7.40;6.50;;;8.50;99.90;;;;;;6181471;23;20427;-82
2021/04/15 07:50:22;;;;;;;8.33;6.77;;;8.70;99.90;;;;;;6193575;23;20439;-82
2021/04/15 07:53:18;;;;;;;6.63;5.83;;;8.90;99.90;;;;;;6217598;23;20444;-82
2021/04/15 07:56:17;;;;;;;9.03;7.60;;;9.00;99.90;;;;;;6191760;23;20459;-82
2021/04/15 07:59:12;;;;;;;11.57;7.20;;;9.10;99.90;;;;;;6190914;23;20444;-82
2021/04/15 08:01:59;;;;;;;6.60;5.70;;;9.30;99.90;;;;;;6191600;23;20817;-82
2021/04/15 08:05:00;;;;;;;7.40;6.20;;;9.40;99.90;;;;;;6190875;23;20432;-82
2021/04/15 08:07:44;;;;;;;8.50;7.60;;;9.60;99.90;;;;;;6170267;23;20432;-81
2021/04/15 08:10:35;;;;;;;8.80;7.90;;;9.60;99.90;;;;;;6213073;23;20794;-81
2021/04/15 08:13:24;;;;;;;10.63;6.30;;;9.70;99.90;;;;;;6188616;23;20423;-81
2021/04/15 08:28:08;;;;;;;4.30;3.90;;;10.50;99.90;;;;;;6184162;23;20508;-79
2021/04/15 08:30:45;;;;;;;5.47;4.40;;;10.70;99.50;;;;;;6214129;23;20505;-79
2021/04/15 08:33:26;;;;;;;9.30;5.33;;;10.70;99.70;;;;;;6213789;23;20421;-79
2021/04/15 08:36:20;;;;;;;9.13;7.50;;;10.80;99.90;;;;;;6214393;23;20500;-79
2021/04/15 08:39:10;;;;;;;12.00;7.70;;;10.90;99.80;;;;;;6187495;23;20739;-79
2021/04/15 08:41:49;;;;;;;10.93;7.10;;;11.10;99.00;;;;;;6214381;23;20168;-79
2021/04/15 08:44:33;;;;;;;8.20;6.53;;;11.20;99.30;;;;;;6214014;23;20428;-79
2021/04/15 08:47:22;;;;;;;8.17;5.63;;;11.30;99.50;;;;;;6189240;23;20473;-80
2021/04/15 08:50:01;;;;;;;9.07;5.47;;;11.40;99.00;;;;;;6213416;23;20443;-79
2021/04/15 08:52:40;;;;;;;6.87;5.60;;;11.40;99.10;;;;;;6188676;23;20410;-79
2021/04/15 08:55:18;;;;;;;9.77;6.20;;;11.40;98.60;;;;;;6189431;23;20791;-79
2021/04/15 08:57:59;;;;;;;6.60;4.80;;;11.40;98.90;;;;;;6200490;23;20387;-79
2021/04/15 09:00:35;;;;;;;7.60;5.20;;;11.50;99.00;;;;;;6213525;23;20475;-79
2021/04/15 09:03:17;;;;;;;10.27;6.17;;;11.50;98.80;;;;;;6199904;23;20717;-79
2021/04/15 09:06:07;;;;;;;7.10;5.50;;;11.60;98.70;;;;;;6188255;23;20434;-79
2021/04/15 09:08:44;;;;;;;5.47;4.97;;;11.60;98.60;;;;;;6216058;23;20413;-79
2021/04/15 09:11:16;;;;;;;7.37;5.57;;;11.70;98.70;;;;;;6188851;23;20416;-79
2021/04/15 09:13:53;;;;;;;6.97;5.27;;;11.80;98.60;;;;;;6189906;23;20476;-79
2021/04/15 09:16:34;;;;;;;5.93;4.97;;;11.90;98.50;;;;;;6188499;23;20469;-79
2021/04/15 09:19:11;;;;;;;8.30;5.17;;;12.00;98.40;;;;;;6189036;23;20429;-79
2021/04/15 09:21:49;;;;;;;5.33;4.83;;;12.10;98.00;;;;;;6199434;23;20419;-79
2021/04/15 09:24:29;;;;;;;6.40;5.17;;;12.10;97.60;;;;;;6187980;23;20495;-79
2021/04/15 09:27:20;;;;;;;6.37;4.80;;;12.10;97.30;;;;;;6198901;23;20443;-79
2021/04/15 09:30:01;;;;;;;5.33;4.60;;;12.10;97.20;;;;;;6187142;23;20496;-79
2021/04/15 09:32:39;;;;;;;9.30;4.90;;;12.20;97.10;;;;;;6212065;23;20421;-79
2021/04/15 09:35:29;;;;;;;4.73;3.70;;;12.30;96.90;;;;;;6211928;23;20406;-79
2021/04/15 09:38:33;;;;;;;5.20;4.03;;;12.30;96.70;;;;;;6168282;23;20490;-79
2021/04/15 09:41:32;;;;;;;4.90;3.23;;;12.40;96.30;;;;;;6187838;23;20411;-79
2021/04/15 09:44:09;;;;;;;4.50;3.30;;;12.50;96.40;;;;;;6199505;23;20710;-79
2021/04/15 09:46:48;;;;;;;3.93;2.40;;;12.60;95.90;;;;;;6188079;23;20457;-79
2021/04/15 09:49:40;;;;;;;1.80;1.70;;;12.60;95.20;;;;;;6211826;23;20413;-79
2021/04/15 09:52:37;;;;;;;3.63;2.17;;;12.60;94.20;;;;;;6186428;23;20903;-79
2021/04/15 09:55:17;;;;;;;2.70;1.80;;;12.60;92.60;;;;;;6218123;23;20422;-79
2021/04/15 09:57:55;;;;;;;3.60;2.10;;;12.50;92.40;;;;;;6188285;23;20410;-79
2021/04/15 10:00:26;;;;;;;3.93;2.00;;;12.50;92.50;;;;;;6188482;23;20447;-81
2021/04/15 10:03:10;;;;;;;2.30;1.73;;;12.50;92.30;;;;;;6200615;23;20390;-81
2021/04/15 10:06:00;;;;;;;2.80;2.37;;;12.50;92.20;;;;;;6200153;23;20419;-81
2021/04/15 10:08:36;;;;;;;2.10;1.57;;;12.60;92.10;;;;;;6197543;23;20505;-81
2021/04/15 10:11:17;;;;;;;2.97;1.83;;;12.70;92.00;;;;;;6188221;23;20484;-81
2021/04/15 10:13:57;;;;;;;2.90;2.03;;;12.80;91.70;;;;;;6189194;23;20430;-81
2021/04/15 10:16:33;;;;;;;3.43;1.60;;;12.90;91.10;;;;;;6189743;23;20796;-81
2021/04/15 10:19:32;;;;;;;2.40;1.10;;;12.90;90.70;;;;;;6217347;23;20513;-79
2021/04/15 10:22:12;;;;;;;1.90;1.20;;;12.90;90.40;;;;;;6187292;23;20418;-79
2021/04/15 10:24:44;;;;;;;2.60;1.80;;;12.90;89.30;;;;;;6198429;23;20175;-79
2021/04/15 10:27:30;;;;;;;2.60;1.60;;;12.90;88.70;;;;;;6213560;23;20475;-80
2021/04/15 10:30:29;;;;;;;3.00;1.50;;;12.90;88.00;;;;;;6211846;23;20442;-80
2021/04/15 10:33:32;;;;;;;3.70;2.37;;;12.90;87.50;;;;;;6186721;23;20407;-79
2021/04/15 10:36:30;;;;;;;5.70;2.00;;;12.90;87.60;;;;;;6211703;23;20505;-79
2021/04/15 10:39:25;;;;;;;2.10;1.50;;;12.90;87.20;;;;;;6186320;23;20439;-79
2021/04/15 10:42:37;;;;;;;1.97;1.60;;;12.90;85.40;;;;;;6211617;23;20782;-79
2021/04/15 10:45:29;;;;;;;1.90;1.57;;;12.90;85.00;;;;;;6210956;23;20442;-79
2021/04/15 10:48:33;;;;;;;2.70;1.77;;;12.80;84.10;;;;;;6201255;23;20719;-80
2021/04/15 10:51:05;;;;;;;1.70;1.60;;;12.70;84.00;;;;;;6186568;23;20410;-80
2021/04/15 10:53:49;;;;;;;3.47;1.73;;;12.70;83.70;;;;;;6199010;23;20385;-79
2021/04/15 10:56:52;;;;;;;2.43;2.23;;;12.60;82.80;;;;;;6186286;23;20750;-80
2021/04/15 10:59:36;;;;;;;2.67;1.97;;;12.60;82.10;;;;;;6198363;23;20749;-80
2021/04/15 11:02:47;;;;;;;1.73;1.60;;;12.60;82.30;;;;;;6186798;23;20414;-80
2021/04/15 11:05:26;;;;;;;2.60;1.80;;;12.70;81.70;;;;;;6211550;23;20434;-80
2021/04/15 11:08:04;;;;;;;2.33;1.70;;;12.80;82.00;;;;;;6198235;23;20379;-80
2021/04/15 11:10:33;;;;;;;2.63;2.07;;;12.80;81.60;;;;;;6198524;23;20422;-80
2021/04/15 11:13:20;;;;;;;2.60;2.20;;;12.80;81.30;;;;;;6212084;23;20423;-80
2021/04/15 11:15:49;;;;;;;2.23;1.87;;;12.80;81.00;;;;;;6187289;23;20407;-80
2021/04/15 11:18:25;;;;;;;3.33;2.03;;;12.80;80.80;;;;;;6186754;23;20422;-80
2021/04/15 11:21:12;;;;;;;2.07;1.70;;;12.70;78.70;;;;;;6198780;23;20880;-80
2021/04/15 11:23:39;;;;;;;2.43;1.93;;;12.50;78.40;;;;;;6212340;23;20871;-80
2021/04/15 11:26:16;;;;;;;2.00;1.80;;;12.40;77.40;;;;;;6187243;23;20440;-80
2021/04/15 11:28:45;;;;;;;1.97;1.70;;;12.20;75.60;;;;;;6211019;23;20922;-80
2021/04/15 11:31:36;;;;;;;2.10;1.80;;;12.00;74.70;;;;;;6197670;23;20399;-80
2021/04/15 11:34:09;;;;;;;3.23;2.93;;;11.90;74.80;;;;;;6186002;23;20443;-80
2021/04/15 11:36:39;;;;;;;2.10;1.60;;;11.80;74.70;;;;;;6186394;23;20507;-80
2021/04/15 11:39:11;;;;;;;2.23;2.00;;;11.70;74.30;;;;;;6198044;23;20431;-80
2021/04/15 11:41:50;;;;;;;3.10;1.73;;;11.60;73.40;;;;;;6210029;23;20415;-80
2021/04/15 11:44:29;;;;;;;2.43;1.53;;;11.70;68.50;;;;;;6197982;23;20207;-80
2021/04/15 11:46:58;;;;;;;2.30;1.73;;;11.60;69.20;;;;;;6186161;23;20453;-80
2021/04/15 11:49:30;;;;;;;2.03;1.70;;;11.50;69.30;;;;;;6186035;23;20441;-80
2021/04/15 11:52:06;;;;;;;1.80;1.30;;;11.50;68.30;;;;;;6211119;23;20742;-80
2021/04/15 11:54:36;;;;;;;3.10;2.23;;;11.50;68.90;;;;;;6199380;23;20385;-80
2021/04/15 11:57:24;;;;;;;2.70;2.13;;;11.50;69.00;;;;;;6188185;23;20421;-80
2021/04/15 12:00:14;;;;;;;2.60;1.90;;;11.50;69.50;;;;;;6210935;23;20438;-80
2021/04/15 12:02:45;;;;;;;2.83;1.87;;;11.60;70.00;;;;;;6185954;23;20416;-79
2021/04/15 12:05:20;;;;;;;1.97;1.77;;;11.60;69.90;;;;;;6198055;23;20445;-80
2021/04/15 12:07:55;;;;;;;3.30;1.80;;;11.60;69.70;;;;;;6198159;23;20389;-80
2021/04/15 12:10:25;;;;;;;2.47;1.80;;;11.60;69.80;;;;;;6185528;23;20455;-80
2021/04/15 12:12:59;;;;;;;2.50;1.90;;;11.70;69.50;;;;;;6185938;23;20869;-80
2021/04/15 12:15:32;;;;;;;1.63;1.50;;;11.70;69.10;;;;;;6211399;23;20417;-80
2021/04/15 12:18:04;;;;;;;2.50;2.10;;;11.70;68.90;;;;;;6185942;23;20765;-80
2021/04/15 12:20:41;;;;;;;2.30;1.87;;;11.60;68.80;;;;;;6211525;23;20446;-80
2021/04/15 12:23:17;;;;;;;2.80;2.10;;;11.60;68.70;;;;;;6211510;23;20426;-80
2021/04/15 12:25:58;;;;;;;1.83;1.53;;;11.60;68.30;;;;;;6185959;23;20456;-80
2021/04/15 12:28:36;;;;;;;4.83;3.13;;;11.50;68.70;;;;;;6185995;23;20424;-79
2021/04/15 12:31:16;;;;;;;1.53;1.43;;;11.50;67.90;;;;;;6186650;23;20876;-79
2021/04/15 12:33:53;;;;;;;2.40;1.80;;;11.50;67.20;;;;;;6199267;23;20411;-79
2021/04/15 12:36:27;;;;;;;2.43;1.80;;;11.40;67.00;;;;;;6188400;23;20725;-79
2021/04/15 12:38:58;;;;;;;3.03;2.00;;;11.50;67.50;;;;;;6187970;23;20434;-79
2021/04/15 12:41:27;;;;;;;2.43;1.80;;;11.60;67.80;;;;;;6189053;23;20414;-80
2021/04/15 12:44:05;;;;;;;1.90;1.70;;;11.70;67.90;;;;;;6190404;23;20413;-80
2021/04/15 12:46:36;;;;;;;2.57;1.70;;;11.80;67.50;;;;;;6213887;23;20441;-80
2021/04/15 12:49:06;;;;;;;2.07;1.70;;;11.90;67.00;;;;;;6213299;23;20460;-80
2021/04/15 12:51:36;;;;;;;1.87;1.60;;;11.90;66.70;;;;;;6199304;23;20460;-80
2021/04/15 12:54:06;;;;;;;1.87;1.50;;;11.80;66.60;;;;;;6189990;23;20445;-80
2021/04/15 12:56:40;;;;;;;2.97;1.77;;;11.80;66.70;;;;;;6188553;23;20412;-79
2021/04/15 12:59:09;;;;;;;2.17;1.93;;;11.80;66.70;;;;;;6188837;23;20442;-79
2021/04/15 13:01:38;;;;;;;2.17;1.83;;;11.70;66.70;;;;;;6199995;23;20394;-80
2021/04/15 13:04:19;;;;;;;1.97;1.60;;;11.70;66.30;;;;;;6200973;23;20400;-79
2021/04/15 13:07:08;;;;;;;5.00;1.83;;;11.60;66.10;;;;;;6188348;23;20910;-79
2021/04/15 13:09:38;;;;;;;2.20;1.88;;;11.60;65.70;;;;;;6211852;23;20422;-79
2021/04/15 13:12:34;;;;;;;2.87;1.87;;;11.70;64.00;;;;;;6188450;23;20496;-79
2021/04/15 13:15:04;;;;;;;2.57;1.90;;;11.60;63.40;;;;;;6122333;23;20422;-79
2021/04/15 13:17:51;;;;;;;7.70;1.93;;;11.50;64.80;;;;;;6200793;23;20513;-79
2021/04/15 13:20:39;;;;;;;1.90;1.60;;;11.60;65.20;;;;;;6199998;23;20430;-79
2021/04/15 13:23:33;;;;;;;2.00;1.30;;;11.70;65.30;;;;;;6212799;23;20776;-79
2021/04/15 13:26:30;;;;;;;1.90;1.30;;;11.70;64.60;;;;;;6187912;23;20907;-79
2021/04/15 13:29:25;;;;;;;1.87;1.63;;;11.80;64.80;;;;;;6199833;23;20427;-79
2021/04/15 13:31:59;;;;;;;1.70;1.43;;;11.90;64.60;;;;;;6188606;23;20417;-79
2021/04/15 13:34:51;;;;;;;1.33;1.10;;;11.80;63.50;;;;;;6200318;23;20381;-79
2021/04/15 13:37:45;;;;;;;1.80;1.20;;;11.80;62.80;;;;;;6200259;23;20432;-79
2021/04/15 13:40:27;;;;;;;1.67;1.40;;;11.70;61.10;;;;;;6143702;23;20508;-79
2021/04/15 13:42:55;;;;;;;2.23;1.20;;;11.80;62.30;;;;;;6187568;23;20413;-79
2021/04/15 13:45:44;;;;;;;2.37;1.60;;;11.80;61.60;;;;;;6198911;23;20828;-79
2021/04/15 13:48:41;;;;;;;3.93;1.47;;;11.80;61.80;;;;;;6187782;23;20413;-79
2021/04/15 13:51:20;;;;;;;1.50;1.23;;;11.90;61.50;;;;;;6209920;23;20481;-79
2021/04/15 13:53:58;;;;;;;2.00;1.50;;;11.90;61.60;;;;;;6199775;23;20446;-79
2021/04/15 13:56:57;;;;;;;2.03;1.47;;;12.00;61.30;;;;;;6188245;23;20415;-79
2021/04/15 14:00:02;;;;;;;2.90;1.07;;;12.00;61.00;;;;;;6199997;23;20426;-79
2021/04/15 14:02:50;;;;;;;3.33;1.47;;;12.10;60.80;;;;;;6189916;23;20391;-79
2021/04/15 14:05:43;;;;;;;1.47;1.30;;;12.10;60.80;;;;;;6187994;23;20439;-79
2021/04/15 14:08:41;;;;;;;1.17;0.93;;;12.10;61.30;;;;;;6188247;23;20436;-79
2021/04/15 14:11:45;;;;;;;2.20;1.40;;;12.20;62.10;;;;;;6187909;23;20408;-79
2021/04/15 14:14:29;;;;;;;1.73;1.00;;;12.30;61.10;;;;;;6199777;23;20387;-79
2021/04/15 14:16:59;;;;;;;2.07;1.20;;;12.30;61.10;;;;;;6212717;23;20753;-79
2021/04/15 14:19:33;;;;;;;2.00;1.63;;;12.40;61.60;;;;;;6156378;23;20841;-81
2021/04/15 14:22:04;;;;;;;2.60;1.37;;;12.50;61.50;;;;;;6172684;23;20394;-81
2021/04/15 14:24:36;;;;;;;2.28;1.33;;;12.60;61.70;;;;;;6135886;23;20468;-81
2021/04/15 14:27:12;;;;;;;2.20;1.43;;;12.60;60.00;;;;;;6136580;23;20174;-81
2021/04/15 14:29:43;;;;;;;2.77;1.43;;;12.60;60.30;;;;;;6137601;23;20441;-81
2021/04/15 14:32:28;;;;;;;2.20;1.50;;;12.50;61.00;;;;;;6163098;23;20434;-81
2021/04/15 14:35:13;;;;;;;2.40;1.30;;;12.50;61.00;;;;;;6140745;23;20476;-80
2021/04/15 14:37:50;;;;;;;2.30;1.80;;;12.50;60.10;;;;;;6141969;23;20450;-81
2021/04/15 14:40:27;;;;;;;3.00;2.30;;;12.40;60.60;;;;;;6159789;23;20435;-81
2021/04/15 14:42:56;;;;;;;2.87;2.50;;;12.30;62.00;;;;;;6135328;23;20422;-81